TimeCST,TemperatureF,Dew PointF,Humidity,Sea Level PressureIn,VisibilityMPH,Wind Direction,Wind SpeedMPH,Gust SpeedMPH,PrecipitationIn,Events,Conditions,WindDirDegrees,DateUTC
1:56 AM,17.1,10.0,74,30.33,10.0,SW,4.6,-,N/A,,Overcast,220,2013-01-15 07:56:00
2:56 AM,18.0,10.0,71,30.33,10.0,SSW,9.2,-,N/A,,Overcast,210,2013-01-15 08:56:00
3:56 AM,17.1,9.0,71,30.32,10.0,Calm,Calm,-,N/A,,Overcast,0,2013-01-15 09:56:00
4:56 AM,19.0,10.9,71,30.30,10.0,SW,4.6,-,N/A,,Overcast,230,2013-01-15 10:56:00
5:56 AM,19.9,12.9,74,30.29,10.0,SSW,11.5,-,N/A,,Overcast,200,2013-01-15 11:56:00
6:56 AM,19.0,12.0,74,30.30,10.0,SSW,11.5,-,N/A,,Mostly Cloudy,210,2013-01-15 12:56:00
7:56 AM,18.0,10.9,74,30.29,10.0,SSW,11.5,-,N/A,,Clear,210,2013-01-15 13:56:00
8:56 AM,19.0,10.0,68,30.28,10.0,SSW,13.8,-,N/A,,Clear,210,2013-01-15 14:56:00
9:56 AM,21.9,12.0,66,30.27,10.0,SW,12.7,-,N/A,,Clear,220,2013-01-15 15:56:00
10:56 AM,25.0,14.0,63,30.26,10.0,WSW,11.5,-,N/A,,Clear,240,2013-01-15 16:56:00
11:56 AM,28.9,14.0,54,30.22,10.0,SW,13.8,-,N/A,,Clear,230,2013-01-15 17:56:00
12:56 PM,32.0,7.0,35,30.18,10.0,SW,16.1,-,N/A,,Clear,220,2013-01-15 18:56:00
1:56 PM,34.0,6.1,31,30.15,10.0,SW,17.3,23.0,N/A,,Clear,230,2013-01-15 19:56:00
2:56 PM,34.0,5.0,30,30.14,10.0,SW,17.3,23.0,N/A,,Clear,220,2013-01-15 20:56:00
3:56 PM,34.0,3.9,28,30.13,10.0,SSW,16.1,25.3,N/A,,Clear,210,2013-01-15 21:56:00
4:56 PM,32.0,7.0,35,30.12,10.0,SSW,12.7,-,N/A,,Clear,210,2013-01-15 22:56:00
5:56 PM,27.0,15.1,61,30.13,10.0,South,12.7,-,N/A,,Clear,190,2013-01-15 23:56:00
6:56 PM,25.0,15.1,66,30.12,10.0,SSW,13.8,-,N/A,,Clear,200,2013-01-16 00:56:00
7:56 PM,23.0,15.1,72,30.10,10.0,SSW,16.1,-,N/A,,Clear,200,2013-01-16 01:56:00
8:56 PM,23.0,12.9,65,30.08,10.0,SW,18.4,-,N/A,,Clear,220,2013-01-16 02:56:00
9:56 PM,23.0,12.0,63,30.04,10.0,SW,13.8,-,N/A,,Clear,220,2013-01-16 03:56:00
10:56 PM,23.0,10.9,60,30.02,10.0,SW,13.8,-,N/A,,Clear,220,2013-01-16 04:56:00
11:56 PM,21.0,10.9,65,30.00,10.0,SSW,13.8,-,N/A,,Clear,210,2013-01-16 05:56:00